createdAt,value
2019-01-27T00:05:49.122Z,102.10
2019-01-27T00:08:15.530Z,102.04
2019-01-27T00:14:05.465Z,102.17
2019-01-27T00:16:32.019Z,102.23
2019-01-27T00:18:58.394Z,102.15
2019-01-27T00:21:24.960Z,102.14
2019-01-27T00:27:25.290Z,102.30
2019-01-27T00:29:51.683Z,102.42
2019-01-27T00:35:42.566Z,102.15
2019-01-27T00:38:09.882Z,102.13
2019-01-27T00:40:37.132Z,102.13
2019-01-27T00:43:10.455Z,102.26
2019-01-27T00:45:37.841Z,102.15
2019-01-27T00:48:05.773Z,102.17
2019-01-27T00:50:34.661Z,102.12
2019-01-27T00:56:25.457Z,102.06
2019-01-27T00:58:52.524Z,102.03
2019-01-27T01:01:19.321Z,102.08
2019-01-27T01:03:46.018Z,102.18
2019-01-27T01:06:12.746Z,102.19
2019-01-27T01:08:39.494Z,102.24
2019-01-27T01:11:06.144Z,102.25
2019-01-27T01:13:32.576Z,102.17
2019-01-27T01:15:58.891Z,101.98
2019-01-27T01:18:31.417Z,101.78
2019-01-27T01:20:57.884Z,101.86
2019-01-27T01:23:24.533Z,101.78
2019-01-27T01:25:51.009Z,101.88
2019-01-27T01:28:17.733Z,101.91
2019-01-27T01:30:44.472Z,101.88
2019-01-27T01:33:11.148Z,101.78
2019-01-27T01:35:39.161Z,101.54
2019-01-27T01:38:05.818Z,101.49
2019-01-27T01:40:32.599Z,101.49
2019-01-27T01:42:59.445Z,101.39
2019-01-27T01:45:28.595Z,101.52
2019-01-27T01:47:55.636Z,101.64
2019-01-27T01:50:22.467Z,101.66
2019-01-27T01:52:49.935Z,101.62
2019-01-27T01:55:17.090Z,101.54
2019-01-27T01:57:44.474Z,101.50
2019-01-27T02:00:14.644Z,101.54
2019-01-27T02:02:41.495Z,101.67
2019-01-27T02:05:10.333Z,101.59
2019-01-27T02:07:37.280Z,101.39
2019-01-27T02:10:07.598Z,101.50
2019-01-27T02:12:34.312Z,101.54
2019-01-27T02:15:01.121Z,101.61
2019-01-27T02:17:27.568Z,101.65
2019-01-27T02:19:54.457Z,101.62
2019-01-27T02:22:21.214Z,101.52
2019-01-27T02:24:47.949Z,101.44
2019-01-27T02:27:14.575Z,101.46
2019-01-27T02:29:41.722Z,101.37
2019-01-27T02:32:08.486Z,101.37
2019-01-27T02:34:38.135Z,101.37
2019-01-27T02:37:04.951Z,101.21
2019-01-27T02:39:31.952Z,101.36
2019-01-27T02:41:59.016Z,101.39
2019-01-27T02:44:27.682Z,101.38
2019-01-27T02:46:54.854Z,101.40
2019-01-27T02:49:21.882Z,101.38
2019-01-27T02:51:49.153Z,101.37
2019-01-27T02:54:16.405Z,101.40
2019-01-27T02:56:45.120Z,101.40
2019-01-27T02:59:13.995Z,101.36
2019-01-27T03:01:41.392Z,101.07
2019-01-27T03:04:08.437Z,101.03
2019-01-27T03:06:37.080Z,101.15
2019-01-27T03:09:08.496Z,101.30
2019-01-27T03:11:37.538Z,101.19
2019-01-27T03:14:04.549Z,101.24
2019-01-27T03:16:34.594Z,100.99
2019-01-27T03:19:01.506Z,100.77
2019-01-27T03:21:28.190Z,100.66
2019-01-27T03:23:55.015Z,100.75
2019-01-27T03:26:22.029Z,100.72
2019-01-27T03:28:48.657Z,100.60
2019-01-27T03:31:15.522Z,100.69
2019-01-27T03:33:42.172Z,100.66
2019-01-27T03:36:11.177Z,100.56
2019-01-27T03:38:38.655Z,100.49
2019-01-27T03:41:06.182Z,100.62
2019-01-27T03:43:33.360Z,100.60
2019-01-27T03:46:00.241Z,100.69
2019-01-27T03:48:27.223Z,100.69
2019-01-27T03:50:54.709Z,100.61
2019-01-27T03:53:22.038Z,100.60
2019-01-27T03:55:49.392Z,100.81
2019-01-27T03:58:17.481Z,100.78
2019-01-27T04:00:44.419Z,100.94
2019-01-27T04:03:11.661Z,101.27
2019-01-27T04:05:39.509Z,101.10
2019-01-27T04:08:06.438Z,101.17
2019-01-27T04:10:33.443Z,101.02
2019-01-27T04:13:00.994Z,101.24
2019-01-27T04:15:28.071Z,101.14
2019-01-27T04:17:57.914Z,101.11
2019-01-27T04:20:27.124Z,101.19
2019-01-27T04:22:56.391Z,100.95
2019-01-27T04:25:23.185Z,101.14
2019-01-27T04:27:50.130Z,101.28
2019-01-27T04:30:29.315Z,101.36
2019-01-27T04:32:56.089Z,101.41
2019-01-27T04:35:26.308Z,101.34
2019-01-27T04:37:53.345Z,101.29
2019-01-27T04:40:22.043Z,101.12
2019-01-27T04:42:49.416Z,101.24
2019-01-27T04:45:18.333Z,101.25
2019-01-27T04:47:45.208Z,101.43
2019-01-27T04:50:13.233Z,101.17
2019-01-27T04:52:39.874Z,101.05
2019-01-27T04:55:09.790Z,100.91
2019-01-27T04:57:36.720Z,100.84
2019-01-27T05:00:09.510Z,100.72
2019-01-27T05:02:38.250Z,100.96
2019-01-27T05:05:11.413Z,101.21
2019-01-27T05:07:38.746Z,101.12
2019-01-27T05:10:09.238Z,101.27
2019-01-27T05:12:36.332Z,101.26
2019-01-27T05:15:07.026Z,101.23
2019-01-27T05:17:34.162Z,101.11
2019-01-27T05:20:04.414Z,101.06
2019-01-27T05:22:34.133Z,101.16
2019-01-27T05:25:01.690Z,100.90
2019-01-27T05:27:28.872Z,100.95
2019-01-27T05:29:55.885Z,100.83
2019-01-27T05:32:22.542Z,100.80
2019-01-27T05:34:48.971Z,100.77
2019-01-27T05:37:15.500Z,100.72
2019-01-27T05:39:42.890Z,100.68
2019-01-27T05:42:09.598Z,100.79
2019-01-27T05:44:36.755Z,101.02
2019-01-27T05:47:03.683Z,101.02
2019-01-27T05:49:31.525Z,100.96
2019-01-27T05:52:01.750Z,101.13
2019-01-27T05:54:28.937Z,101.24
2019-01-27T05:56:56.697Z,101.36
2019-01-27T05:59:24.398Z,101.35
2019-01-27T06:01:51.807Z,101.17
2019-01-27T06:04:18.658Z,101.01
2019-01-27T06:06:45.724Z,100.82
2019-01-27T06:09:12.928Z,100.78
2019-01-27T06:11:39.718Z,100.72
2019-01-27T06:14:06.867Z,100.58
2019-01-27T06:16:34.647Z,100.60
2019-01-27T06:19:01.730Z,100.54
2019-01-27T06:21:29.256Z,100.49
2019-01-27T06:23:56.411Z,100.61
2019-01-27T06:26:24.095Z,100.47
2019-01-27T06:28:52.263Z,100.38
2019-01-27T06:31:23.138Z,100.37
2019-01-27T06:33:52.616Z,100.46
2019-01-27T06:36:19.926Z,100.08
2019-01-27T06:38:47.024Z,100.06
2019-01-27T06:41:14.153Z,99.81
2019-01-27T06:43:41.060Z,99.82
2019-01-27T06:46:08.071Z,99.89
2019-01-27T06:48:34.955Z,99.89
2019-01-27T06:51:01.832Z,99.90
2019-01-27T06:53:28.718Z,99.89
2019-01-27T06:55:55.870Z,99.81
2019-01-27T06:58:28.025Z,99.79
2019-01-27T07:00:56.982Z,99.59
2019-01-27T07:03:30.838Z,99.72
2019-01-27T07:06:06.114Z,99.77
2019-01-27T07:08:48.240Z,100.40
2019-01-27T07:11:36.464Z,100.86
2019-01-27T07:14:11.434Z,99.85
2019-01-27T07:16:46.393Z,99.55
2019-01-27T07:19:32.190Z,99.33
2019-01-27T07:22:18.693Z,99.46
2019-01-27T07:24:50.570Z,99.67
2019-01-27T07:27:37.496Z,99.88
2019-01-27T07:30:12.814Z,99.90
2019-01-27T07:35:28.964Z,100.12
2019-01-27T07:38:01.891Z,100.27
2019-01-27T07:40:36.710Z,100.08
2019-01-27T07:43:08.117Z,100.25
2019-01-27T07:45:49.481Z,100.26
2019-01-27T07:48:18.282Z,100.21
2019-01-27T07:50:58.871Z,99.98
2019-01-27T07:53:44.371Z,99.96
2019-01-27T07:56:20.933Z,99.88
2019-01-27T07:58:50.183Z,100.06
2019-01-27T08:01:18.740Z,100.03
2019-01-27T08:03:53.810Z,99.76
2019-01-27T08:06:29.150Z,99.73
2019-01-27T08:08:58.269Z,99.62
2019-01-27T08:11:33.116Z,99.64
2019-01-27T08:14:04.841Z,99.46
2019-01-27T08:16:42.175Z,99.40
2019-01-27T08:19:14.085Z,99.45
2019-01-27T08:21:42.699Z,99.33
2019-01-27T08:24:27.186Z,99.15
2019-01-27T08:27:01.814Z,98.84
2019-01-27T08:29:35.103Z,98.77
2019-01-27T08:32:15.699Z,98.98
2019-01-27T08:34:53.077Z,98.97
2019-01-27T08:37:22.325Z,98.96
2019-01-27T08:39:51.270Z,99.09
2019-01-27T08:42:39.482Z,98.95
2019-01-27T08:45:16.380Z,98.66
2019-01-27T08:47:43.577Z,98.59
2019-01-27T08:50:13.902Z,98.83
2019-01-27T08:52:41.216Z,98.70
2019-01-27T08:55:12.724Z,98.72
2019-01-27T08:57:48.713Z,98.82
2019-01-27T09:00:21.995Z,98.89
2019-01-27T09:03:03.446Z,99.00
2019-01-27T09:05:33.727Z,98.98
2019-01-27T09:08:11.422Z,98.98
2019-01-27T09:10:42.877Z,99.18
2019-01-27T09:13:14.019Z,99.11
2019-01-27T09:15:54.583Z,98.86
2019-01-27T09:18:32.195Z,98.77
2019-01-27T09:21:03.325Z,99.07
2019-01-27T09:23:41.234Z,98.99
2019-01-27T09:26:23.084Z,98.78
2019-01-27T09:28:55.098Z,98.82
2019-01-27T09:31:26.787Z,98.82
2019-01-27T09:33:55.975Z,98.75
2019-01-27T09:36:27.911Z,98.84
2019-01-27T09:39:00.619Z,98.60
2019-01-27T09:41:29.818Z,98.72
2019-01-27T09:44:01.860Z,98.92
2019-01-27T09:46:33.539Z,99.12
2019-01-27T09:49:11.418Z,99.08
2019-01-27T09:51:44.560Z,99.32
2019-01-27T09:54:13.625Z,99.52
2019-01-27T10:00:09.628Z,99.84
2019-01-27T10:02:38.978Z,99.88
2019-01-27T10:05:09.687Z,99.95
2019-01-27T10:07:45.172Z,99.98
2019-01-27T10:10:17.225Z,99.93
2019-01-27T10:12:49.146Z,99.98
2019-01-27T10:15:33.307Z,99.95
2019-01-27T10:18:02.736Z,99.92
2019-01-27T10:23:57.354Z,100.04
2019-01-27T10:26:41.479Z,100.11
2019-01-27T10:32:45.334Z,100.23
2019-01-27T10:38:25.589Z,100.24
2019-01-27T10:40:54.869Z,100.37
2019-01-27T10:43:29.753Z,100.47
2019-01-27T10:49:23.147Z,100.44
2019-01-27T10:51:52.848Z,100.66
2019-01-27T10:54:33.944Z,100.70
2019-01-27T10:57:11.412Z,100.45
2019-01-27T11:02:42.628Z,100.59
2019-01-27T11:05:28.192Z,100.47
2019-01-27T11:08:15.725Z,100.42
2019-01-27T11:14:08.575Z,99.98
2019-01-27T11:20:01.704Z,99.14
2019-01-27T11:22:36.325Z,98.84
2019-01-27T11:25:20.143Z,98.81
2019-01-27T11:27:51.308Z,98.49
2019-01-27T11:30:24.955Z,98.74
2019-01-27T11:32:59.950Z,98.47
2019-01-27T11:35:39.595Z,98.05
2019-01-27T11:38:26.011Z,98.15
2019-01-27T11:40:56.643Z,98.15
2019-01-27T11:43:25.508Z,98.02
2019-01-27T11:46:11.419Z,98.21
2019-01-27T11:48:44.060Z,97.63
2019-01-27T11:57:18.258Z,97.75
2019-01-27T11:59:46.165Z,97.56
2019-01-27T12:02:13.035Z,97.06
2019-01-27T12:04:40.640Z,96.98
2019-01-27T12:07:08.552Z,97.34
2019-01-27T12:09:36.429Z,97.28
2019-01-27T12:12:04.209Z,97.24
2019-01-27T12:14:31.497Z,97.03
2019-01-27T12:16:58.596Z,97.09
2019-01-27T12:19:26.491Z,96.99
2019-01-27T12:21:53.811Z,96.96
2019-01-27T12:27:57.350Z,97.40
2019-01-27T12:30:24.133Z,97.93
2019-01-27T12:32:51.361Z,98.05
2019-01-27T12:35:18.922Z,98.42
2019-01-27T12:37:46.780Z,98.50
2019-01-27T12:40:37.148Z,98.18
2019-01-27T12:43:10.539Z,98.19
2019-01-27T12:49:02.284Z,98.52
2019-01-27T12:51:30.916Z,98.46
2019-01-27T12:57:11.398Z,98.11
2019-01-27T12:59:39.330Z,97.97
2019-01-27T13:02:07.002Z,97.81
2019-01-27T13:04:35.194Z,97.56
2019-01-27T13:10:25.968Z,97.55
2019-01-27T13:12:53.900Z,97.57
2019-01-27T13:15:21.956Z,97.54
2019-01-27T13:17:48.678Z,97.51
2019-01-27T13:20:18.338Z,97.06
2019-01-27T13:22:48.211Z,97.27
2019-01-27T13:28:37.921Z,96.60
2019-01-27T13:31:07.141Z,96.54
2019-01-27T13:33:38.424Z,96.42
2019-01-27T13:36:06.009Z,96.37
2019-01-27T13:38:33.255Z,96.48
2019-01-27T13:41:00.719Z,96.18
2019-01-27T13:46:52.668Z,96.43
2019-01-27T13:49:20.966Z,96.66
2019-01-27T13:51:49.432Z,96.68
2019-01-27T13:54:16.734Z,96.44
2019-01-27T13:56:44.409Z,96.31
2019-01-27T13:59:12.419Z,96.42
2019-01-27T14:01:40.702Z,96.50
2019-01-27T14:04:15.931Z,96.53
2019-01-27T14:06:48.868Z,96.44
2019-01-27T14:09:16.955Z,96.21
2019-01-27T14:11:48.243Z,96.31
2019-01-27T14:14:16.553Z,96.25
2019-01-27T14:16:44.277Z,96.40
2019-01-27T14:19:14.912Z,96.24
2019-01-27T14:21:44.590Z,96.65
2019-01-27T14:24:11.520Z,96.54
2019-01-27T14:26:38.162Z,96.55
2019-01-27T14:29:07.547Z,96.45
2019-01-27T14:31:35.935Z,96.00
2019-01-27T14:34:08.737Z,96.15
2019-01-27T14:36:36.644Z,96.50
2019-01-27T14:39:06.829Z,96.54
2019-01-27T14:41:36.192Z,95.96
2019-01-27T14:44:11.300Z,95.71
2019-01-27T14:46:41.828Z,95.99
2019-01-27T14:49:10.314Z,96.14
2019-01-27T14:51:37.999Z,96.28
2019-01-27T14:54:05.253Z,96.54
2019-01-27T14:56:33.718Z,96.32
2019-01-27T14:59:03.244Z,95.82
2019-01-27T15:04:42.200Z,96.47
2019-01-27T15:07:10.783Z,96.57
2019-01-27T15:09:38.853Z,96.60
2019-01-27T15:12:06.580Z,96.64
2019-01-27T15:14:34.351Z,96.20
2019-01-27T15:17:05.042Z,96.44
2019-01-27T15:19:33.556Z,96.92
2019-01-27T15:22:01.493Z,97.04
2019-01-27T15:24:33.030Z,97.28
2019-01-27T15:27:03.049Z,97.57
2019-01-27T15:29:31.249Z,97.89
2019-01-27T15:35:24.184Z,97.87
2019-01-27T15:37:55.195Z,97.86
2019-01-27T15:40:23.226Z,97.66
2019-01-27T15:42:57.444Z,98.13
2019-01-27T15:45:30.817Z,98.89
2019-01-27T15:48:03.547Z,98.58
2019-01-27T15:50:33.263Z,98.44
2019-01-27T15:53:01.189Z,98.20
2019-01-27T15:55:29.536Z,98.15
2019-01-27T15:58:05.358Z,98.04
2019-01-27T16:00:32.157Z,98.03
2019-01-27T16:02:59.041Z,98.08
2019-01-27T16:05:26.304Z,98.06
2019-01-27T16:07:53.354Z,97.82
2019-01-27T16:10:26.824Z,97.96
2019-01-27T16:13:05.308Z,97.89
2019-01-27T16:19:08.142Z,97.90
2019-01-27T16:21:36.262Z,98.01
2019-01-27T16:24:05.485Z,97.86
2019-01-27T16:26:32.160Z,98.34
2019-01-27T16:29:01.210Z,98.33
2019-01-27T16:31:31.075Z,98.10
2019-01-27T16:34:00.118Z,98.02
2019-01-27T16:36:27.615Z,98.27
2019-01-27T16:38:55.790Z,98.06
2019-01-27T16:41:23.194Z,98.04
2019-01-27T16:43:50.466Z,98.28
2019-01-27T16:46:18.130Z,98.49
2019-01-27T16:48:45.316Z,98.32
2019-01-27T16:54:37.126Z,98.32
2019-01-27T16:57:04.834Z,98.36
2019-01-27T16:59:32.465Z,98.62
2019-01-27T17:02:00.236Z,98.76
2019-01-27T17:07:51.458Z,98.62
2019-01-27T17:10:25.189Z,98.76
2019-01-27T17:16:18.996Z,98.78
2019-01-27T17:22:10.983Z,98.85
2019-01-27T17:24:38.535Z,99.02
2019-01-27T17:27:11.493Z,99.10
2019-01-27T17:29:41.230Z,99.09
2019-01-27T17:32:09.437Z,99.08
2019-01-27T17:34:35.734Z,99.11
2019-01-27T17:37:11.323Z,99.29
2019-01-27T17:39:40.165Z,99.31
2019-01-27T17:42:08.791Z,98.98
2019-01-27T17:48:11.906Z,99.27
2019-01-27T17:50:40.705Z,99.43
2019-01-27T17:53:09.416Z,99.62
2019-01-27T17:55:44.537Z,99.38
2019-01-27T17:58:31.030Z,99.38
2019-01-27T18:04:36.622Z,99.46
2019-01-27T18:07:09.002Z,99.34
2019-01-27T18:09:37.775Z,99.20
2019-01-27T18:15:17.821Z,99.56
2019-01-27T18:17:46.967Z,99.40
2019-01-27T18:20:15.376Z,99.46
2019-01-27T18:22:49.516Z,99.36
2019-01-27T18:28:29.143Z,99.71
2019-01-27T18:31:02.434Z,99.87
2019-01-27T18:33:31.284Z,99.94
2019-01-27T18:36:02.659Z,100.07
2019-01-27T18:38:40.560Z,100.14
2019-01-27T18:41:10.142Z,100.28
2019-01-27T18:43:38.533Z,100.12
2019-01-27T18:46:08.372Z,100.11
2019-01-27T18:48:38.858Z,99.97
2019-01-27T18:51:06.223Z,100.00
2019-01-27T18:53:44.170Z,100.33
2019-01-27T18:56:15.174Z,100.47
2019-01-27T19:01:57.943Z,100.94
2019-01-27T19:04:29.000Z,100.98
2019-01-27T19:07:09.597Z,101.03
2019-01-27T19:13:02.463Z,101.09
2019-01-27T19:19:00.618Z,101.19
2019-01-27T19:21:29.885Z,101.21
2019-01-27T19:27:31.079Z,100.99
2019-01-27T19:33:35.041Z,100.95
2019-01-27T19:36:07.243Z,101.62
2019-01-27T19:38:43.348Z,101.20
2019-01-27T19:44:34.144Z,100.90
2019-01-27T19:47:08.519Z,100.57
2019-01-27T19:49:40.615Z,100.64
2019-01-27T19:52:09.662Z,100.69
2019-01-27T19:54:44.729Z,100.65
2019-01-27T20:03:18.572Z,100.50
2019-01-27T20:05:53.688Z,100.40
2019-01-27T20:08:28.946Z,100.26
2019-01-27T20:14:20.934Z,100.14
2019-01-27T20:16:50.146Z,99.88
2019-01-27T20:19:27.798Z,99.95
2019-01-27T20:25:24.990Z,99.78
2019-01-27T20:27:53.643Z,99.68
2019-01-27T20:30:25.298Z,99.88
2019-01-27T20:36:15.189Z,100.14
2019-01-27T20:38:49.788Z,100.24
2019-01-27T20:41:33.516Z,100.20
2019-01-27T20:47:26.641Z,100.57
2019-01-27T20:50:04.615Z,100.51
2019-01-27T20:55:57.635Z,100.32
2019-01-27T20:58:28.980Z,100.29
2019-01-27T21:01:03.327Z,100.24
2019-01-27T21:03:31.701Z,100.40
2019-01-27T21:09:50.187Z,100.25
2019-01-27T21:15:32.363Z,100.19
2019-01-27T21:21:23.586Z,100.00
2019-01-27T21:27:06.313Z,99.37
2019-01-27T21:29:34.990Z,99.26
2019-01-27T21:32:01.705Z,99.67
2019-01-27T21:34:28.648Z,99.55
2019-01-27T21:40:41.716Z,99.61
2019-01-27T21:43:09.531Z,98.94
2019-01-27T21:49:00.424Z,99.22
2019-01-27T21:51:27.525Z,99.11
2019-01-27T21:53:54.516Z,99.07
2019-01-27T21:56:26.249Z,98.98
2019-01-27T21:58:54.082Z,99.08
2019-01-27T22:01:25.367Z,98.95
2019-01-27T22:03:51.158Z,99.18
2019-01-27T22:06:18.408Z,99.01
2019-01-27T22:08:45.691Z,98.85
2019-01-27T22:11:12.734Z,98.48
2019-01-27T22:13:41.745Z,98.38
2019-01-27T22:16:08.790Z,98.47
2019-01-27T22:18:36.658Z,98.47
2019-01-27T22:21:10.126Z,99.09
2019-01-27T22:23:37.631Z,99.18
2019-01-27T22:26:06.579Z,99.20
2019-01-27T22:28:33.444Z,99.11
2019-01-27T22:31:00.494Z,98.92
2019-01-27T22:33:30.533Z,99.12
2019-01-27T22:35:57.199Z,99.05
2019-01-27T22:38:24.250Z,98.96
2019-01-27T22:40:51.445Z,99.16
2019-01-27T22:43:20.954Z,99.11
2019-01-27T22:45:48.304Z,99.17
2019-01-27T22:48:15.609Z,99.01
2019-01-27T22:50:42.776Z,99.20
2019-01-27T22:53:10.311Z,99.39
2019-01-27T22:55:37.690Z,99.42
2019-01-27T22:58:04.730Z,99.39
2019-01-27T23:00:59.014Z,98.85
2019-01-27T23:03:26.855Z,98.97
2019-01-27T23:05:54.288Z,98.92
2019-01-27T23:08:24.716Z,98.73
2019-01-27T23:10:52.162Z,99.07
2019-01-27T23:13:21.686Z,99.23
2019-01-27T23:15:49.237Z,99.51
2019-01-27T23:18:18.139Z,99.71
2019-01-27T23:20:45.753Z,99.77
2019-01-27T23:23:13.473Z,99.63
2019-01-27T23:25:40.879Z,99.49
2019-01-27T23:28:08.743Z,99.33
2019-01-27T23:30:35.588Z,99.50
2019-01-27T23:33:02.739Z,99.59
2019-01-27T23:35:29.829Z,99.72
2019-01-27T23:37:56.905Z,99.72
2019-01-27T23:40:26.427Z,99.92
2019-01-27T23:42:55.382Z,100.00
2019-01-27T23:45:26.069Z,100.13
2019-01-27T23:47:53.096Z,100.01
2019-01-27T23:50:20.678Z,99.85
2019-01-27T23:52:48.852Z,99.88
2019-01-27T23:55:15.845Z,99.88
2019-01-27T23:57:42.671Z,99.82
